PDT,Max TemperatureF,Mean TemperatureF,Min TemperatureF,Max Dew PointF,MeanDew PointF,Min DewpointF,Max Humidity, Mean Humidity, Min Humidity, Max Sea Level PressureIn, Mean Sea Level PressureIn, Min Sea Level PressureIn, Max VisibilityMiles, Mean VisibilityMiles, Min VisibilityMiles, Max Wind SpeedMPH, Mean Wind SpeedMPH, Max Gust SpeedMPH,PrecipitationIn, CloudCover, Events, WindDirDegrees
2013-7-1,107,87,66,70,63,58,81,51,21,29.95,29.87,29.78,10,10,10,20,4,,0.00,0,,157
2013-7-2,103,88,73,69,65,61,79,53,27,29.97,29.90,29.82,10,10,10,10,3,15,0.01,0,Rain-Thunderstorm,54
2013-7-3,96,83,70,65,54,46,73,47,20,29.96,29.90,29.83,10,10,10,16,4,21,0.00,0,,319
2013-7-4,91,77,62,56,46,38,67,41,15,29.90,29.84,29.76,10,10,10,20,6,24,0.00,0,,297
2013-7-5,84,72,59,50,44,38,60,41,21,29.87,29.82,29.77,10,10,10,18,6,23,0.00,0,,288
2013-7-6,89,72,54,49,45,41,66,44,21,29.90,29.82,29.75,10,10,10,15,5,18,0.00,0,,349
2013-7-7,94,77,59,53,46,39,69,43,16,29.84,29.78,29.71,10,10,10,14,4,22,0.00,0,,7
2013-7-8,91,76,61,54,48,38,67,42,16,30.02,29.89,29.76,10,10,10,17,6,28,0.01,1,Thunderstorm,301
2013-7-9,97,79,60,52,47,41,69,42,15,30.09,30.00,29.91,10,10,10,21,4,92,0.00,0,,46
2013-7-10,98,81,64,51,45,33,56,35,14,29.94,29.83,29.72,10,10,10,17,5,21,0.00,0,,315
2013-7-11,90,79,67,43,37,30,39,27,14,29.89,29.81,29.75,10,10,6,18,6,23,0.00,0,,307
2013-7-12,86,72,57,40,33,23,47,30,12,29.92,29.86,29.81,10,10,10,17,5,32,T,0,,313
2013-7-13,84,70,55,37,34,29,39,28,17,30.13,30.05,29.93,10,10,10,13,3,84,0.00,0,,16
2013-7-14,93,74,55,45,38,33,59,36,13,30.09,29.99,29.86,10,10,10,16,4,23,0.00,0,,292
2013-7-15,92,75,57,46,39,34,52,33,14,29.95,29.89,29.83,10,10,10,14,4,17,0.00,0,,26
2013-7-16,96,78,60,55,46,40,48,34,19,29.90,29.81,29.70,10,10,10,23,5,17,0.06,0,Thunderstorm,357
2013-7-17,97,83,68,65,53,41,79,48,16,30.02,29.92,29.80,10,10,4,20,7,35,0.01,1,Rain-Thunderstorm,253
2013-7-18,98,81,64,52,42,32,52,32,11,30.10,30.02,29.95,10,10,10,13,3,16,0.00,0,,341
2013-7-19,100,81,62,47,40,30,48,29,9,30.04,29.95,29.85,10,10,10,12,3,24,0.00,0,,84
2013-7-20,100,82,63,47,38,31,48,29,10,29.92,29.83,29.74,10,10,10,13,3,17,0.00,0,,323
2013-7-21,99,81,62,44,34,23,43,25,7,29.83,29.76,29.70,10,10,10,15,4,18,0.00,0,,287
2013-7-22,99,81,63,44,37,29,44,26,8,29.88,29.83,29.75,10,10,10,15,4,20,0.00,0,,309
2013-7-23,102,83,63,46,38,29,48,28,8,29.99,29.90,29.82,10,10,10,12,4,16,0.00,0,,89
2013-7-24,102,83,64,46,38,31,44,26,8,29.95,29.89,29.83,10,10,10,12,4,14,0.00,0,,38
2013-7-25,102,83,63,46,34,21,44,26,7,29.99,29.93,29.88,10,10,10,14,4,18,0.00,0,,279
2013-7-26,102,81,60,42,29,19,39,22,5,30.06,29.95,29.87,10,10,10,14,4,18,0.00,0,,324
2013-7-27,93,79,64,42,32,22,28,20,11,29.97,29.89,29.80,10,10,8,18,7,27,0.00,0,,310
2013-7-28,90,74,57,41,34,27,43,28,13,29.88,29.81,29.75,10,10,10,14,5,18,0.00,1,,267
2013-7-29,93,75,57,42,34,31,42,28,13,29.90,29.85,29.81,10,10,9,16,4,20,0.00,0,,9
2013-7-30,94,79,64,43,38,33,42,28,13,30.02,29.98,29.88,10,10,10,13,4,23,0.00,0,,311
2013-7-31,96,80,63,44,41,38,44,29,13,30.04,29.95,29.86,10,10,10,20,7,28,T,0,,276